sensor_id;sensor_type;location;lat;lon;timestamp;temperature;humidity
44537;DHT22;30245;51.966;6.292;2023-04-24T00:01:51;15.20;62.30
44537;DHT22;30245;51.966;6.292;2023-04-24T00:04:18;15.30;62.30
44537;DHT22;30245;51.966;6.292;2023-04-24T00:06:43;15.30;62.30
44537;DHT22;30245;51.966;6.292;2023-04-24T00:09:09;15.30;62.10
44537;DHT22;30245;51.966;6.292;2023-04-24T00:11:36;15.30;62.00
44537;DHT22;30245;51.966;6.292;2023-04-24T00:14:02;15.30;62.20
44537;DHT22;30245;51.966;6.292;2023-04-24T00:16:27;15.30;62.20
44537;DHT22;30245;51.966;6.292;2023-04-24T00:18:53;15.30;62.20
44537;DHT22;30245;51.966;6.292;2023-04-24T00:21:19;15.30;62.30
44537;DHT22;30245;51.966;6.292;2023-04-24T00:23:46;15.30;62.20
44537;DHT22;30245;51.966;6.292;2023-04-24T00:26:11;15.30;62.00
44537;DHT22;30245;51.966;6.292;2023-04-24T00:28:37;15.30;62.00
44537;DHT22;30245;51.966;6.292;2023-04-24T00:31:02;15.30;62.10
44537;DHT22;30245;51.966;6.292;2023-04-24T00:33:28;15.30;62.00
44537;DHT22;30245;51.966;6.292;2023-04-24T00:35:53;15.30;62.20
44537;DHT22;30245;51.966;6.292;2023-04-24T00:38:19;15.30;62.30
44537;DHT22;30245;51.966;6.292;2023-04-24T00:40:45;15.30;62.70
44537;DHT22;30245;51.966;6.292;2023-04-24T00:43:11;15.40;62.00
44537;DHT22;30245;51.966;6.292;2023-04-24T00:45:37;15.40;61.80
44537;DHT22;30245;51.966;6.292;2023-04-24T00:48:03;15.40;61.80
44537;DHT22;30245;51.966;6.292;2023-04-24T00:50:30;15.40;61.80
44537;DHT22;30245;51.966;6.292;2023-04-24T00:52:56;15.40;61.80
44537;DHT22;30245;51.966;6.292;2023-04-24T00:55:21;15.40;61.80
44537;DHT22;30245;51.966;6.292;2023-04-24T00:57:48;15.30;61.80
44537;DHT22;30245;51.966;6.292;2023-04-24T01:00:15;15.30;61.80
44537;DHT22;30245;51.966;6.292;2023-04-24T01:02:41;15.40;61.90
44537;DHT22;30245;51.966;6.292;2023-04-24T01:05:15;15.40;61.90
44537;DHT22;30245;51.966;6.292;2023-04-24T01:07:44;15.30;62.00
44537;DHT22;30245;51.966;6.292;2023-04-24T01:10:11;15.30;62.00
44537;DHT22;30245;51.966;6.292;2023-04-24T01:12:37;15.40;62.00
44537;DHT22;30245;51.966;6.292;2023-04-24T01:15:03;15.40;61.80
44537;DHT22;30245;51.966;6.292;2023-04-24T01:17:29;15.40;61.70
44537;DHT22;30245;51.966;6.292;2023-04-24T01:19:55;15.40;61.90
44537;DHT22;30245;51.966;6.292;2023-04-24T01:22:22;15.40;62.60
44537;DHT22;30245;51.966;6.292;2023-04-24T01:24:48;15.40;62.00
44537;DHT22;30245;51.966;6.292;2023-04-24T01:27:14;15.40;62.10
44537;DHT22;30245;51.966;6.292;2023-04-24T01:29:40;15.40;62.20
44537;DHT22;30245;51.966;6.292;2023-04-24T01:32:06;15.30;62.40
44537;DHT22;30245;51.966;6.292;2023-04-24T01:34:32;15.30;62.50
44537;DHT22;30245;51.966;6.292;2023-04-24T01:36:58;15.20;62.70
44537;DHT22;30245;51.966;6.292;2023-04-24T01:39:24;15.20;62.80
44537;DHT22;30245;51.966;6.292;2023-04-24T01:41:51;15.20;62.90
44537;DHT22;30245;51.966;6.292;2023-04-24T01:44:17;15.20;62.90
44537;DHT22;30245;51.966;6.292;2023-04-24T01:46:43;15.20;63.00
44537;DHT22;30245;51.966;6.292;2023-04-24T01:49:09;15.10;63.10
44537;DHT22;30245;51.966;6.292;2023-04-24T01:51:35;15.10;63.20
44537;DHT22;30245;51.966;6.292;2023-04-24T01:54:00;15.10;63.20
44537;DHT22;30245;51.966;6.292;2023-04-24T01:56:29;15.10;63.00
44537;DHT22;30245;51.966;6.292;2023-04-24T01:58:54;15.10;63.00
44537;DHT22;30245;51.966;6.292;2023-04-24T02:01:21;15.20;63.00
44537;DHT22;30245;51.966;6.292;2023-04-24T02:03:46;15.20;62.80
44537;DHT22;30245;51.966;6.292;2023-04-24T02:06:12;15.20;62.80
44537;DHT22;30245;51.966;6.292;2023-04-24T02:08:37;15.20;62.80
44537;DHT22;30245;51.966;6.292;2023-04-24T02:11:03;15.20;62.70
44537;DHT22;30245;51.966;6.292;2023-04-24T02:13:29;15.10;62.90
44537;DHT22;30245;51.966;6.292;2023-04-24T02:15:54;15.10;63.10
44537;DHT22;30245;51.966;6.292;2023-04-24T02:18:20;15.10;63.10
44537;DHT22;30245;51.966;6.292;2023-04-24T02:20:46;15.10;63.20
44537;DHT22;30245;51.966;6.292;2023-04-24T02:23:11;15.10;63.20
44537;DHT22;30245;51.966;6.292;2023-04-24T02:25:38;15.10;63.30
44537;DHT22;30245;51.966;6.292;2023-04-24T02:28:04;15.10;63.20
44537;DHT22;30245;51.966;6.292;2023-04-24T02:30:29;15.10;63.20
44537;DHT22;30245;51.966;6.292;2023-04-24T02:32:55;15.10;63.20
44537;DHT22;30245;51.966;6.292;2023-04-24T02:35:21;15.00;63.40
44537;DHT22;30245;51.966;6.292;2023-04-24T02:37:47;15.00;63.50
44537;DHT22;30245;51.966;6.292;2023-04-24T02:40:13;15.00;63.50
44537;DHT22;30245;51.966;6.292;2023-04-24T02:42:38;15.00;63.60
44537;DHT22;30245;51.966;6.292;2023-04-24T02:45:04;15.00;63.50
44537;DHT22;30245;51.966;6.292;2023-04-24T02:47:30;15.00;63.60
44537;DHT22;30245;51.966;6.292;2023-04-24T02:49:56;14.90;63.70
44537;DHT22;30245;51.966;6.292;2023-04-24T02:52:21;14.90;63.80
44537;DHT22;30245;51.966;6.292;2023-04-24T02:54:47;14.90;64.00
44537;DHT22;30245;51.966;6.292;2023-04-24T02:57:12;14.90;64.00
44537;DHT22;30245;51.966;6.292;2023-04-24T02:59:38;14.90;64.10
44537;DHT22;30245;51.966;6.292;2023-04-24T03:02:03;14.80;64.30
44537;DHT22;30245;51.966;6.292;2023-04-24T03:04:29;14.70;64.30
44537;DHT22;30245;51.966;6.292;2023-04-24T03:06:55;14.70;64.60
44537;DHT22;30245;51.966;6.292;2023-04-24T03:09:21;14.70;64.60
44537;DHT22;30245;51.966;6.292;2023-04-24T03:11:47;14.70;64.60
44537;DHT22;30245;51.966;6.292;2023-04-24T03:14:13;14.70;64.70
44537;DHT22;30245;51.966;6.292;2023-04-24T03:16:39;14.70;64.60
44537;DHT22;30245;51.966;6.292;2023-04-24T03:19:05;14.70;64.50
44537;DHT22;30245;51.966;6.292;2023-04-24T03:21:30;14.80;64.50
44537;DHT22;30245;51.966;6.292;2023-04-24T03:23:56;14.80;64.40
44537;DHT22;30245;51.966;6.292;2023-04-24T03:26:21;14.80;64.40
44537;DHT22;30245;51.966;6.292;2023-04-24T03:28:47;14.70;64.60
44537;DHT22;30245;51.966;6.292;2023-04-24T03:31:13;14.70;64.80
44537;DHT22;30245;51.966;6.292;2023-04-24T03:33:38;14.70;64.90
44537;DHT22;30245;51.966;6.292;2023-04-24T03:36:04;14.70;64.90
44537;DHT22;30245;51.966;6.292;2023-04-24T03:38:30;14.70;64.80
44537;DHT22;30245;51.966;6.292;2023-04-24T03:40:55;14.60;65.00
44537;DHT22;30245;51.966;6.292;2023-04-24T03:43:21;14.60;65.00
44537;DHT22;30245;51.966;6.292;2023-04-24T03:45:47;14.60;65.20
44537;DHT22;30245;51.966;6.292;2023-04-24T03:48:12;14.50;65.30
44537;DHT22;30245;51.966;6.292;2023-04-24T03:50:38;14.50;65.40
44537;DHT22;30245;51.966;6.292;2023-04-24T03:53:03;14.50;66.00
44537;DHT22;30245;51.966;6.292;2023-04-24T03:55:29;14.50;65.40
44537;DHT22;30245;51.966;6.292;2023-04-24T03:57:55;14.60;65.40
44537;DHT22;30245;51.966;6.292;2023-04-24T04:00:20;14.50;65.30
44537;DHT22;30245;51.966;6.292;2023-04-24T04:02:46;14.60;65.20
44537;DHT22;30245;51.966;6.292;2023-04-24T04:05:12;14.50;65.10
44537;DHT22;30245;51.966;6.292;2023-04-24T04:07:38;14.50;65.20
44537;DHT22;30245;51.966;6.292;2023-04-24T04:10:04;14.50;65.30
44537;DHT22;30245;51.966;6.292;2023-04-24T04:12:32;14.50;65.20
44537;DHT22;30245;51.966;6.292;2023-04-24T04:14:57;14.50;65.10
44537;DHT22;30245;51.966;6.292;2023-04-24T04:17:23;14.50;65.00
44537;DHT22;30245;51.966;6.292;2023-04-24T04:19:49;14.50;65.00
44537;DHT22;30245;51.966;6.292;2023-04-24T04:22:14;14.50;65.60
44537;DHT22;30245;51.966;6.292;2023-04-24T04:24:40;14.50;65.00
44537;DHT22;30245;51.966;6.292;2023-04-24T04:27:06;14.60;65.00
44537;DHT22;30245;51.966;6.292;2023-04-24T04:29:32;14.60;64.90
44537;DHT22;30245;51.966;6.292;2023-04-24T04:31:58;14.50;65.00
44537;DHT22;30245;51.966;6.292;2023-04-24T04:34:24;14.50;65.00
44537;DHT22;30245;51.966;6.292;2023-04-24T04:36:49;14.50;65.10
44537;DHT22;30245;51.966;6.292;2023-04-24T04:39:16;14.50;65.10
44537;DHT22;30245;51.966;6.292;2023-04-24T04:41:42;14.50;65.00
44537;DHT22;30245;51.966;6.292;2023-04-24T04:44:07;14.40;65.10
44537;DHT22;30245;51.966;6.292;2023-04-24T04:46:34;14.40;65.20
44537;DHT22;30245;51.966;6.292;2023-04-24T04:49:00;14.40;65.20
44537;DHT22;30245;51.966;6.292;2023-04-24T04:51:26;14.40;65.20
44537;DHT22;30245;51.966;6.292;2023-04-24T04:53:52;14.40;65.30
44537;DHT22;30245;51.966;6.292;2023-04-24T04:56:18;14.40;65.40
44537;DHT22;30245;51.966;6.292;2023-04-24T04:58:44;14.40;65.30
44537;DHT22;30245;51.966;6.292;2023-04-24T05:01:09;14.40;65.30
44537;DHT22;30245;51.966;6.292;2023-04-24T05:03:35;14.30;65.30
44537;DHT22;30245;51.966;6.292;2023-04-24T05:06:01;14.30;65.50
44537;DHT22;30245;51.966;6.292;2023-04-24T05:08:27;14.30;65.50
44537;DHT22;30245;51.966;6.292;2023-04-24T05:10:54;14.30;65.60
44537;DHT22;30245;51.966;6.292;2023-04-24T05:13:20;14.30;65.50
44537;DHT22;30245;51.966;6.292;2023-04-24T05:15:45;14.40;65.50
44537;DHT22;30245;51.966;6.292;2023-04-24T05:18:11;14.40;65.30
44537;DHT22;30245;51.966;6.292;2023-04-24T05:20:37;14.40;65.20
44537;DHT22;30245;51.966;6.292;2023-04-24T05:23:02;14.40;65.10
44537;DHT22;30245;51.966;6.292;2023-04-24T05:25:28;14.40;65.10
44537;DHT22;30245;51.966;6.292;2023-04-24T05:27:53;14.40;65.30
44537;DHT22;30245;51.966;6.292;2023-04-24T05:30:19;14.40;65.30
44537;DHT22;30245;51.966;6.292;2023-04-24T05:32:45;14.50;65.20
44537;DHT22;30245;51.966;6.292;2023-04-24T05:35:11;14.50;65.00
44537;DHT22;30245;51.966;6.292;2023-04-24T05:37:37;14.60;64.90
44537;DHT22;30245;51.966;6.292;2023-04-24T05:40:03;14.60;64.90
44537;DHT22;30245;51.966;6.292;2023-04-24T05:42:30;14.50;64.90
44537;DHT22;30245;51.966;6.292;2023-04-24T05:44:56;14.40;64.90
44537;DHT22;30245;51.966;6.292;2023-04-24T05:47:22;14.40;65.30
44537;DHT22;30245;51.966;6.292;2023-04-24T05:49:47;14.30;65.40
44537;DHT22;30245;51.966;6.292;2023-04-24T05:52:13;14.30;65.60
44537;DHT22;30245;51.966;6.292;2023-04-24T05:54:39;14.30;65.60
44537;DHT22;30245;51.966;6.292;2023-04-24T05:57:04;14.20;65.80
44537;DHT22;30245;51.966;6.292;2023-04-24T05:59:34;14.10;66.10
44537;DHT22;30245;51.966;6.292;2023-04-24T06:02:00;14.10;66.20
44537;DHT22;30245;51.966;6.292;2023-04-24T06:04:26;14.10;66.20
44537;DHT22;30245;51.966;6.292;2023-04-24T06:06:51;14.10;66.30
44537;DHT22;30245;51.966;6.292;2023-04-24T06:09:21;14.10;66.20
44537;DHT22;30245;51.966;6.292;2023-04-24T06:11:47;14.10;66.20
44537;DHT22;30245;51.966;6.292;2023-04-24T06:14:13;14.10;66.40
44537;DHT22;30245;51.966;6.292;2023-04-24T06:16:40;14.10;66.40
44537;DHT22;30245;51.966;6.292;2023-04-24T06:19:05;14.10;66.40
44537;DHT22;30245;51.966;6.292;2023-04-24T06:21:31;14.10;66.30
44537;DHT22;30245;51.966;6.292;2023-04-24T06:23:56;14.10;66.40
44537;DHT22;30245;51.966;6.292;2023-04-24T06:26:23;14.10;66.30
44537;DHT22;30245;51.966;6.292;2023-04-24T06:28:50;14.20;66.20
44537;DHT22;30245;51.966;6.292;2023-04-24T06:31:16;14.30;65.90
44537;DHT22;30245;51.966;6.292;2023-04-24T06:33:42;14.40;65.60
44537;DHT22;30245;51.966;6.292;2023-04-24T06:36:08;14.40;65.50
44537;DHT22;30245;51.966;6.292;2023-04-24T06:38:34;14.50;65.30
44537;DHT22;30245;51.966;6.292;2023-04-24T06:40:59;14.60;65.20
44537;DHT22;30245;51.966;6.292;2023-04-24T06:43:25;14.60;65.00
44537;DHT22;30245;51.966;6.292;2023-04-24T06:45:51;14.70;65.00
44537;DHT22;30245;51.966;6.292;2023-04-24T06:48:16;14.70;64.90
44537;DHT22;30245;51.966;6.292;2023-04-24T06:50:42;14.70;64.90
44537;DHT22;30245;51.966;6.292;2023-04-24T06:53:08;14.70;64.90
44537;DHT22;30245;51.966;6.292;2023-04-24T06:55:36;14.70;64.90
44537;DHT22;30245;51.966;6.292;2023-04-24T06:58:01;14.80;64.90
44537;DHT22;30245;51.966;6.292;2023-04-24T07:00:27;14.80;64.80
44537;DHT22;30245;51.966;6.292;2023-04-24T07:02:53;14.80;64.70
44537;DHT22;30245;51.966;6.292;2023-04-24T07:05:18;14.90;64.60
44537;DHT22;30245;51.966;6.292;2023-04-24T07:07:47;15.00;64.60
44537;DHT22;30245;51.966;6.292;2023-04-24T07:10:14;15.00;64.50
44537;DHT22;30245;51.966;6.292;2023-04-24T07:12:39;15.00;64.40
44537;DHT22;30245;51.966;6.292;2023-04-24T07:15:06;15.10;64.40
44537;DHT22;30245;51.966;6.292;2023-04-24T07:17:33;15.10;64.30
44537;DHT22;30245;51.966;6.292;2023-04-24T07:19:59;15.10;64.90
44537;DHT22;30245;51.966;6.292;2023-04-24T07:22:24;15.20;64.20
44537;DHT22;30245;51.966;6.292;2023-04-24T07:24:50;15.10;64.10
44537;DHT22;30245;51.966;6.292;2023-04-24T07:27:16;15.10;64.00
44537;DHT22;30245;51.966;6.292;2023-04-24T07:29:41;15.10;64.00
44537;DHT22;30245;51.966;6.292;2023-04-24T07:32:07;15.10;64.20
44537;DHT22;30245;51.966;6.292;2023-04-24T07:34:33;15.00;64.20
44537;DHT22;30245;51.966;6.292;2023-04-24T07:36:59;15.00;64.30
44537;DHT22;30245;51.966;6.292;2023-04-24T07:39:24;14.90;64.30
44537;DHT22;30245;51.966;6.292;2023-04-24T07:41:51;15.00;64.40
44537;DHT22;30245;51.966;6.292;2023-04-24T07:44:17;15.00;64.40
44537;DHT22;30245;51.966;6.292;2023-04-24T07:46:42;15.00;64.50
44537;DHT22;30245;51.966;6.292;2023-04-24T07:49:08;15.00;64.30
44537;DHT22;30245;51.966;6.292;2023-04-24T07:51:34;15.00;64.30
44537;DHT22;30245;51.966;6.292;2023-04-24T07:54:04;15.10;64.40
44537;DHT22;30245;51.966;6.292;2023-04-24T07:56:31;15.20;64.20
44537;DHT22;30245;51.966;6.292;2023-04-24T07:58:57;15.20;64.10
44537;DHT22;30245;51.966;6.292;2023-04-24T08:01:22;15.30;64.20
44537;DHT22;30245;51.966;6.292;2023-04-24T08:03:48;15.30;64.20
44537;DHT22;30245;51.966;6.292;2023-04-24T08:06:13;15.30;64.10
44537;DHT22;30245;51.966;6.292;2023-04-24T08:08:39;15.30;64.20
44537;DHT22;30245;51.966;6.292;2023-04-24T08:11:05;15.30;64.20
44537;DHT22;30245;51.966;6.292;2023-04-24T08:13:30;15.20;64.30
44537;DHT22;30245;51.966;6.292;2023-04-24T08:15:56;15.20;64.40
44537;DHT22;30245;51.966;6.292;2023-04-24T08:18:22;15.10;64.50
44537;DHT22;30245;51.966;6.292;2023-04-24T08:20:48;15.20;64.50
44537;DHT22;30245;51.966;6.292;2023-04-24T08:23:13;15.30;64.50
44537;DHT22;30245;51.966;6.292;2023-04-24T08:25:39;15.30;64.30
44537;DHT22;30245;51.966;6.292;2023-04-24T08:28:06;15.30;65.00
44537;DHT22;30245;51.966;6.292;2023-04-24T08:30:32;15.20;64.40
44537;DHT22;30245;51.966;6.292;2023-04-24T08:32:57;15.30;64.40
44537;DHT22;30245;51.966;6.292;2023-04-24T08:35:23;15.30;64.30
44537;DHT22;30245;51.966;6.292;2023-04-24T08:37:49;15.30;64.20
44537;DHT22;30245;51.966;6.292;2023-04-24T08:40:16;15.30;64.20
44537;DHT22;30245;51.966;6.292;2023-04-24T08:42:43;15.20;64.20
44537;DHT22;30245;51.966;6.292;2023-04-24T08:45:13;15.20;64.20
44537;DHT22;30245;51.966;6.292;2023-04-24T08:47:40;15.10;64.30
44537;DHT22;30245;51.966;6.292;2023-04-24T08:50:07;15.10;64.40
44537;DHT22;30245;51.966;6.292;2023-04-24T08:52:34;15.00;64.30
44537;DHT22;30245;51.966;6.292;2023-04-24T08:55:03;15.00;64.20
44537;DHT22;30245;51.966;6.292;2023-04-24T08:57:29;15.00;64.20
44537;DHT22;30245;51.966;6.292;2023-04-24T08:59:57;15.00;64.70
44537;DHT22;30245;51.966;6.292;2023-04-24T09:02:23;15.00;63.80
44537;DHT22;30245;51.966;6.292;2023-04-24T09:04:49;15.00;63.60
44537;DHT22;30245;51.966;6.292;2023-04-24T09:07:16;15.00;63.50
44537;DHT22;30245;51.966;6.292;2023-04-24T09:09:43;15.00;63.30
44537;DHT22;30245;51.966;6.292;2023-04-24T09:12:09;14.90;63.40
44537;DHT22;30245;51.966;6.292;2023-04-24T09:14:36;14.90;63.40
44537;DHT22;30245;51.966;6.292;2023-04-24T09:17:05;14.90;63.50
44537;DHT22;30245;51.966;6.292;2023-04-24T09:19:31;14.90;63.50
44537;DHT22;30245;51.966;6.292;2023-04-24T09:21:57;14.90;63.30
44537;DHT22;30245;51.966;6.292;2023-04-24T09:24:22;14.90;63.40
44537;DHT22;30245;51.966;6.292;2023-04-24T09:26:49;14.90;64.10
44537;DHT22;30245;51.966;6.292;2023-04-24T09:29:22;14.80;63.50
44537;DHT22;30245;51.966;6.292;2023-04-24T09:31:48;14.90;63.50
44537;DHT22;30245;51.966;6.292;2023-04-24T09:34:13;14.80;63.50
44537;DHT22;30245;51.966;6.292;2023-04-24T09:36:43;14.80;63.60
44537;DHT22;30245;51.966;6.292;2023-04-24T09:39:14;14.80;63.60
44537;DHT22;30245;51.966;6.292;2023-04-24T09:44:14;14.70;63.90
44537;DHT22;30245;51.966;6.292;2023-04-24T09:46:41;14.60;64.10
44537;DHT22;30245;51.966;6.292;2023-04-24T09:49:09;14.60;64.00
44537;DHT22;30245;51.966;6.292;2023-04-24T09:51:37;14.60;64.00
44537;DHT22;30245;51.966;6.292;2023-04-24T09:54:24;14.60;64.00
44537;DHT22;30245;51.966;6.292;2023-04-24T09:56:51;14.50;63.90
44537;DHT22;30245;51.966;6.292;2023-04-24T09:59:18;14.40;63.90
44537;DHT22;30245;51.966;6.292;2023-04-24T10:01:44;14.40;63.90
44537;DHT22;30245;51.966;6.292;2023-04-24T10:04:23;14.40;63.80
44537;DHT22;30245;51.966;6.292;2023-04-24T10:06:51;14.30;63.80
44537;DHT22;30245;51.966;6.292;2023-04-24T10:09:19;14.40;63.70
44537;DHT22;30245;51.966;6.292;2023-04-24T10:11:47;14.40;63.70
44537;DHT22;30245;51.966;6.292;2023-04-24T10:14:18;14.50;63.60
44537;DHT22;30245;51.966;6.292;2023-04-24T10:16:46;14.50;63.30
44537;DHT22;30245;51.966;6.292;2023-04-24T10:19:16;14.50;63.00
44537;DHT22;30245;51.966;6.292;2023-04-24T10:21:44;14.50;63.00
44537;DHT22;30245;51.966;6.292;2023-04-24T10:24:14;14.50;62.80
44537;DHT22;30245;51.966;6.292;2023-04-24T10:26:41;14.60;62.50
44537;DHT22;30245;51.966;6.292;2023-04-24T10:29:07;14.60;62.40
44537;DHT22;30245;51.966;6.292;2023-04-24T10:31:35;14.70;62.00
44537;DHT22;30245;51.966;6.292;2023-04-24T10:34:01;14.80;61.70
44537;DHT22;30245;51.966;6.292;2023-04-24T10:36:30;14.80;61.60
44537;DHT22;30245;51.966;6.292;2023-04-24T10:39:00;15.00;61.50
44537;DHT22;30245;51.966;6.292;2023-04-24T10:41:26;15.20;61.30
44537;DHT22;30245;51.966;6.292;2023-04-24T10:44:11;15.50;61.00
44537;DHT22;30245;51.966;6.292;2023-04-24T10:46:38;15.70;60.30
44537;DHT22;30245;51.966;6.292;2023-04-24T10:49:06;15.80;59.80
44537;DHT22;30245;51.966;6.292;2023-04-24T10:51:52;15.80;59.20
44537;DHT22;30245;51.966;6.292;2023-04-24T10:56:55;16.00;59.00
44537;DHT22;30245;51.966;6.292;2023-04-24T10:59:39;16.00;58.60
44537;DHT22;30245;51.966;6.292;2023-04-24T11:02:07;16.10;58.40
44537;DHT22;30245;51.966;6.292;2023-04-24T11:04:33;16.00;58.40
44537;DHT22;30245;51.966;6.292;2023-04-24T11:07:00;15.90;58.00
44537;DHT22;30245;51.966;6.292;2023-04-24T11:09:27;15.80;57.90
44537;DHT22;30245;51.966;6.292;2023-04-24T11:12:03;15.80;58.00
44537;DHT22;30245;51.966;6.292;2023-04-24T11:17:34;15.60;57.90
44537;DHT22;30245;51.966;6.292;2023-04-24T11:20:15;15.60;57.70
44537;DHT22;30245;51.966;6.292;2023-04-24T11:22:42;15.60;57.70
44537;DHT22;30245;51.966;6.292;2023-04-24T11:25:08;15.70;57.70
44537;DHT22;30245;51.966;6.292;2023-04-24T11:27:42;15.80;57.40
44537;DHT22;30245;51.966;6.292;2023-04-24T11:30:09;15.80;57.30
44537;DHT22;30245;51.966;6.292;2023-04-24T11:32:37;15.80;57.20
44537;DHT22;30245;51.966;6.292;2023-04-24T11:37:52;15.80;56.90
44537;DHT22;30245;51.966;6.292;2023-04-24T11:40:20;15.90;56.80
44537;DHT22;30245;51.966;6.292;2023-04-24T11:42:47;15.90;56.40
44537;DHT22;30245;51.966;6.292;2023-04-24T11:45:24;15.90;56.20
44537;DHT22;30245;51.966;6.292;2023-04-24T11:47:50;15.80;55.60
44537;DHT22;30245;51.966;6.292;2023-04-24T11:50:18;15.80;55.50
44537;DHT22;30245;51.966;6.292;2023-04-24T11:52:48;15.70;55.40
44537;DHT22;30245;51.966;6.292;2023-04-24T11:57:42;15.70;55.30
44537;DHT22;30245;51.966;6.292;2023-04-24T12:00:15;15.70;55.20
44537;DHT22;30245;51.966;6.292;2023-04-24T12:02:41;16.00;55.20
44537;DHT22;30245;51.966;6.292;2023-04-24T12:05:07;16.00;54.90
44537;DHT22;30245;51.966;6.292;2023-04-24T12:07:41;16.00;54.40
44537;DHT22;30245;51.966;6.292;2023-04-24T12:10:10;15.90;54.20
44537;DHT22;30245;51.966;6.292;2023-04-24T12:12:36;15.90;54.30
44537;DHT22;30245;51.966;6.292;2023-04-24T12:15:07;16.00;54.50
44537;DHT22;30245;51.966;6.292;2023-04-24T12:17:33;16.00;54.20
44537;DHT22;30245;51.966;6.292;2023-04-24T12:20:03;16.00;54.00
44537;DHT22;30245;51.966;6.292;2023-04-24T12:22:53;16.00;53.70
44537;DHT22;30245;51.966;6.292;2023-04-24T12:25:25;16.00;53.60
44537;DHT22;30245;51.966;6.292;2023-04-24T12:30:30;16.00;53.80
44537;DHT22;30245;51.966;6.292;2023-04-24T12:32:58;15.90;53.60
44537;DHT22;30245;51.966;6.292;2023-04-24T12:35:26;15.90;53.60
44537;DHT22;30245;51.966;6.292;2023-04-24T12:37:52;15.80;53.50
44537;DHT22;30245;51.966;6.292;2023-04-24T12:40:19;15.70;53.70
44537;DHT22;30245;51.966;6.292;2023-04-24T12:42:50;15.70;54.10
44537;DHT22;30245;51.966;6.292;2023-04-24T12:45:17;15.50;54.40
44537;DHT22;30245;51.966;6.292;2023-04-24T12:47:44;15.40;54.90
44537;DHT22;30245;51.966;6.292;2023-04-24T12:50:12;15.40;55.10
44537;DHT22;30245;51.966;6.292;2023-04-24T12:52:38;15.50;55.20
44537;DHT22;30245;51.966;6.292;2023-04-24T12:55:04;15.60;55.10
44537;DHT22;30245;51.966;6.292;2023-04-24T12:57:33;15.70;55.20
44537;DHT22;30245;51.966;6.292;2023-04-24T13:00:00;15.80;55.10
44537;DHT22;30245;51.966;6.292;2023-04-24T13:02:27;15.80;54.80
44537;DHT22;30245;51.966;6.292;2023-04-24T13:04:53;15.90;54.70
44537;DHT22;30245;51.966;6.292;2023-04-24T13:07:19;16.00;54.70
44537;DHT22;30245;51.966;6.292;2023-04-24T13:09:45;16.20;54.30
44537;DHT22;30245;51.966;6.292;2023-04-24T13:12:11;16.30;54.00
44537;DHT22;30245;51.966;6.292;2023-04-24T13:14:38;16.50;53.80
44537;DHT22;30245;51.966;6.292;2023-04-24T13:17:04;16.60;53.20
44537;DHT22;30245;51.966;6.292;2023-04-24T13:19:35;16.50;52.60
44537;DHT22;30245;51.966;6.292;2023-04-24T13:22:01;16.40;52.20
44537;DHT22;30245;51.966;6.292;2023-04-24T13:24:27;16.30;52.20
44537;DHT22;30245;51.966;6.292;2023-04-24T13:26:53;16.20;52.40
44537;DHT22;30245;51.966;6.292;2023-04-24T13:29:19;16.20;52.30
44537;DHT22;30245;51.966;6.292;2023-04-24T13:31:46;16.10;52.50
44537;DHT22;30245;51.966;6.292;2023-04-24T13:34:13;16.10;52.50
44537;DHT22;30245;51.966;6.292;2023-04-24T13:36:38;16.10;52.50
44537;DHT22;30245;51.966;6.292;2023-04-24T13:39:05;16.20;52.30
44537;DHT22;30245;51.966;6.292;2023-04-24T13:41:33;16.30;52.20
44537;DHT22;30245;51.966;6.292;2023-04-24T13:43:58;16.30;52.00
44537;DHT22;30245;51.966;6.292;2023-04-24T13:46:24;16.30;51.90
44537;DHT22;30245;51.966;6.292;2023-04-24T13:48:50;16.30;51.80
44537;DHT22;30245;51.966;6.292;2023-04-24T13:51:15;16.40;51.90
44537;DHT22;30245;51.966;6.292;2023-04-24T13:53:41;16.40;51.70
44537;DHT22;30245;51.966;6.292;2023-04-24T13:56:06;16.40;51.70
44537;DHT22;30245;51.966;6.292;2023-04-24T13:58:33;16.40;51.50
44537;DHT22;30245;51.966;6.292;2023-04-24T14:00:58;16.30;51.40
44537;DHT22;30245;51.966;6.292;2023-04-24T14:03:24;16.30;51.30
44537;DHT22;30245;51.966;6.292;2023-04-24T14:05:49;16.20;51.10
44537;DHT22;30245;51.966;6.292;2023-04-24T14:08:15;16.10;51.30
44537;DHT22;30245;51.966;6.292;2023-04-24T14:10:42;16.00;51.60
44537;DHT22;30245;51.966;6.292;2023-04-24T14:13:07;16.00;52.10
44537;DHT22;30245;51.966;6.292;2023-04-24T14:15:35;15.90;51.00
44537;DHT22;30245;51.966;6.292;2023-04-24T14:18:01;15.80;51.20
44537;DHT22;30245;51.966;6.292;2023-04-24T14:20:26;15.80;51.40
44537;DHT22;30245;51.966;6.292;2023-04-24T14:22:52;15.90;51.50
44537;DHT22;30245;51.966;6.292;2023-04-24T14:25:18;16.00;51.60
44537;DHT22;30245;51.966;6.292;2023-04-24T14:27:44;16.10;51.60
44537;DHT22;30245;51.966;6.292;2023-04-24T14:30:11;16.10;51.70
44537;DHT22;30245;51.966;6.292;2023-04-24T14:32:38;16.20;51.90
44537;DHT22;30245;51.966;6.292;2023-04-24T14:35:05;16.30;52.00
44537;DHT22;30245;51.966;6.292;2023-04-24T14:37:31;16.70;51.80
44537;DHT22;30245;51.966;6.292;2023-04-24T14:39:57;17.20;51.10
44537;DHT22;30245;51.966;6.292;2023-04-24T14:42:22;17.30;50.70
44537;DHT22;30245;51.966;6.292;2023-04-24T14:44:48;17.30;50.50
44537;DHT22;30245;51.966;6.292;2023-04-24T14:47:13;17.20;50.40
44537;DHT22;30245;51.966;6.292;2023-04-24T14:49:39;17.10;50.50
44537;DHT22;30245;51.966;6.292;2023-04-24T14:52:05;17.10;50.70
44537;DHT22;30245;51.966;6.292;2023-04-24T14:54:30;17.20;50.50
44537;DHT22;30245;51.966;6.292;2023-04-24T14:56:56;17.30;49.70
44537;DHT22;30245;51.966;6.292;2023-04-24T14:59:27;17.30;49.40
44537;DHT22;30245;51.966;6.292;2023-04-24T15:01:53;17.40;49.50
44537;DHT22;30245;51.966;6.292;2023-04-24T15:04:25;17.50;49.10
44537;DHT22;30245;51.966;6.292;2023-04-24T15:06:51;17.40;48.70
44537;DHT22;30245;51.966;6.292;2023-04-24T15:09:22;17.40;48.60
44537;DHT22;30245;51.966;6.292;2023-04-24T15:11:49;17.40;49.40
44537;DHT22;30245;51.966;6.292;2023-04-24T15:14:15;17.30;48.50
44537;DHT22;30245;51.966;6.292;2023-04-24T15:16:41;17.20;48.40
44537;DHT22;30245;51.966;6.292;2023-04-24T15:19:07;17.20;48.20
44537;DHT22;30245;51.966;6.292;2023-04-24T15:21:33;17.10;48.10
44537;DHT22;30245;51.966;6.292;2023-04-24T15:23:58;17.00;48.00
44537;DHT22;30245;51.966;6.292;2023-04-24T15:26:24;17.10;47.80
44537;DHT22;30245;51.966;6.292;2023-04-24T15:28:51;17.10;47.80
44537;DHT22;30245;51.966;6.292;2023-04-24T15:31:20;17.10;47.30
44537;DHT22;30245;51.966;6.292;2023-04-24T15:33:47;17.00;46.90
44537;DHT22;30245;51.966;6.292;2023-04-24T15:36:15;16.90;47.10
44537;DHT22;30245;51.966;6.292;2023-04-24T15:38:40;16.80;46.90
44537;DHT22;30245;51.966;6.292;2023-04-24T15:41:06;16.70;47.00
44537;DHT22;30245;51.966;6.292;2023-04-24T15:43:31;16.70;47.10